Time,TemperatureF,DewpointF,PressureIn,WindDirection,WindDirectionDegrees,WindSpeedMPH,WindSpeedGustMPH,Humidity,HourlyPrecipIn,Conditions,Clouds,dailyrainin,SoftwareType,DateUTC
2013-10-08 00:02:00,62.0,58.1,29.77,East,91,0.0,0.0,87,0.00,,,0.00,Wunderground v.1.15,2013-10-08 04:02:00,
2013-10-08 00:04:00,62.0,58.1,29.77,East,91,0.0,0.0,87,0.00,,,0.00,Wunderground v.1.15,2013-10-08 04:04:00,
2013-10-08 00:10:00,62.1,58.2,29.76,East,91,0.0,0.0,87,0.00,,,0.00,Wunderground v.1.15,2013-10-08 04:10:00,
2013-10-08 00:12:00,62.1,58.2,29.76,East,91,0.0,0.0,87,0.00,,,0.00,Wunderground v.1.15,2013-10-08 04:12:00,
2013-10-08 00:18:00,62.0,58.1,29.76,SSW,198,0.0,0.0,87,0.00,,,0.00,Wunderground v.1.15,2013-10-08 04:18:00,
2013-10-08 00:22:00,62.0,58.1,29.76,SSW,198,0.0,0.0,87,0.00,,,0.00,Wunderground v.1.15,2013-10-08 04:22:00,
2013-10-08 00:26:00,62.0,57.8,29.76,South,183,0.0,0.0,86,0.00,,,0.00,Wunderground v.1.15,2013-10-08 04:26:00,
2013-10-08 07:28:00,59.1,50.1,29.88,NE,43,1.0,1.0,72,0.00,,,0.00,Wunderground v.1.15,2013-10-08 11:28:00,
2013-10-08 07:34:00,59.0,49.6,29.88,East,99,0.0,3.0,71,0.00,,,0.00,Wunderground v.1.15,2013-10-08 11:34:00,
2013-10-08 07:40:00,59.0,49.6,29.89,SSE,157,0.0,0.0,71,0.00,,,0.00,Wunderground v.1.15,2013-10-08 11:40:00,
2013-10-08 07:46:00,58.9,49.5,29.88,ENE,68,0.0,2.0,71,0.00,,,0.00,Wunderground v.1.15,2013-10-08 11:46:00,
2013-10-08 07:52:00,58.9,49.9,29.89,SSW,211,1.0,1.0,72,0.00,,,0.00,Wunderground v.1.15,2013-10-08 11:52:00,
2013-10-08 07:58:00,58.8,49.4,29.90,ESE,105,0.0,0.0,71,0.00,,,0.00,Wunderground v.1.15,2013-10-08 11:58:00,
2013-10-08 08:04:00,58.8,49.8,29.90,SSE,150,0.0,0.0,72,0.00,,,0.00,Wunderground v.1.15,2013-10-08 12:04:00,
2013-10-08 08:10:00,58.8,49.4,29.90,NNE,33,0.0,0.0,71,0.00,,,0.00,Wunderground v.1.15,2013-10-08 12:10:00,
2013-10-08 08:16:00,58.8,49.8,29.90,WNW,298,1.0,1.0,72,0.00,,,0.00,Wunderground v.1.15,2013-10-08 12:16:00,
2013-10-08 08:22:00,58.8,50.2,29.90,ENE,57,0.0,0.0,73,0.00,,,0.00,Wunderground v.1.15,2013-10-08 12:22:00,
2013-10-08 08:28:00,58.8,49.8,29.90,ENE,63,0.0,0.0,72,0.00,,,0.00,Wunderground v.1.15,2013-10-08 12:28:00,
2013-10-08 08:34:00,58.7,49.7,29.90,NE,41,0.0,0.0,72,0.00,,,0.00,Wunderground v.1.15,2013-10-08 12:34:00,
2013-10-08 08:40:00,58.8,50.2,29.91,NNE,13,1.0,1.0,73,0.00,,,0.00,Wunderground v.1.15,2013-10-08 12:40:00,
2013-10-08 08:46:00,58.8,49.8,29.91,ENE,63,0.0,1.0,72,0.00,,,0.00,Wunderground v.1.15,2013-10-08 12:46:00,
2013-10-08 08:52:00,58.8,49.8,29.92,NNW,345,0.0,1.0,72,0.00,,,0.00,Wunderground v.1.15,2013-10-08 12:52:00,
2013-10-08 08:58:00,58.8,49.8,29.92,NE,45,0.0,1.0,72,0.00,,,0.00,Wunderground v.1.15,2013-10-08 12:58:00,
2013-10-08 09:04:00,58.7,49.7,29.92,NNE,16,0.0,0.0,72,0.00,,,0.00,Wunderground v.1.15,2013-10-08 13:04:00,
2013-10-08 09:10:00,58.7,49.7,29.93,ENE,72,0.0,0.0,72,0.00,,,0.00,Wunderground v.1.15,2013-10-08 13:10:00,
2013-10-08 09:16:00,58.7,50.1,29.93,NE,53,0.0,1.0,73,0.00,,,0.00,Wunderground v.1.15,2013-10-08 13:16:00,
2013-10-08 13:16:00,60.2,52.2,29.94,ENE,75,0.0,4.0,75,0.00,,,0.00,Wunderground v.1.15,2013-10-08 17:16:00,
2013-10-08 13:22:00,60.3,52.3,29.94,East,92,0.0,4.0,75,0.00,,,0.00,Wunderground v.1.15,2013-10-08 17:22:00,
2013-10-08 13:28:00,60.4,52.4,29.94,SE,143,0.0,4.0,75,0.00,,,0.00,Wunderground v.1.15,2013-10-08 17:28:00,
2013-10-08 13:34:00,60.5,52.2,29.94,WSW,242,0.0,0.0,74,0.00,,,0.00,Wunderground v.1.15,2013-10-08 17:34:00,
2013-10-08 13:40:00,60.5,52.2,29.93,WSW,242,0.0,0.0,74,0.00,,,0.00,Wunderground v.1.15,2013-10-08 17:40:00,
2013-10-08 13:46:00,60.5,52.9,29.94,WSW,242,0.0,0.0,76,0.00,,,0.00,Wunderground v.1.15,2013-10-08 17:46:00,
2013-10-08 13:52:00,60.4,52.4,29.94,WSW,240,0.0,0.0,75,0.00,,,0.00,Wunderground v.1.15,2013-10-08 17:52:00,
2013-10-08 13:58:00,60.4,52.4,29.92,East,82,0.0,1.0,75,0.00,,,0.00,Wunderground v.1.15,2013-10-08 17:58:00,
2013-10-08 14:04:00,60.5,52.5,29.93,ESE,105,0.0,0.0,75,0.00,,,0.00,Wunderground v.1.15,2013-10-08 18:04:00,
2013-10-08 14:10:00,60.5,52.5,29.92,ENE,70,0.0,0.0,75,0.00,,,0.00,Wunderground v.1.15,2013-10-08 18:10:00,
2013-10-08 14:16:00,60.6,52.6,29.92,ENE,72,0.0,0.0,75,0.00,,,0.00,Wunderground v.1.15,2013-10-08 18:16:00,
2013-10-08 14:22:00,60.8,53.5,29.92,ENE,72,0.0,0.0,77,0.00,,,0.00,Wunderground v.1.15,2013-10-08 18:22:00,
2013-10-08 14:28:00,60.8,52.5,29.93,East,96,0.0,1.0,74,0.00,,,0.00,Wunderground v.1.15,2013-10-08 18:28:00,
2013-10-08 14:34:00,60.9,52.9,29.92,ESE,103,0.0,0.0,75,0.00,,,0.00,Wunderground v.1.15,2013-10-08 18:34:00,
2013-10-08 14:40:00,60.9,52.6,29.92,East,96,0.0,1.0,74,0.00,,,0.00,Wunderground v.1.15,2013-10-08 18:40:00,
2013-10-08 14:46:00,61.0,52.3,29.92,East,87,0.0,2.0,73,0.00,,,0.00,Wunderground v.1.15,2013-10-08 18:46:00,
2013-10-08 14:52:00,61.1,52.7,29.92,WSW,246,0.0,2.0,74,0.00,,,0.00,Wunderground v.1.15,2013-10-08 18:52:00,
2013-10-08 14:58:00,61.1,52.7,29.92,ENE,65,0.0,2.0,74,0.00,,,0.00,Wunderground v.1.15,2013-10-08 18:58:00,
2013-10-08 15:04:00,61.2,52.5,29.92,SSW,198,0.0,1.0,73,0.00,,,0.00,Wunderground v.1.15,2013-10-08 19:04:00,
2013-10-08 15:10:00,61.3,52.9,29.92,ENE,70,0.0,0.0,74,0.00,,,0.00,Wunderground v.1.15,2013-10-08 19:10:00,
2013-10-08 15:16:00,61.3,52.6,29.93,ESE,108,1.0,3.0,73,0.00,,,0.00,Wunderground v.1.15,2013-10-08 19:16:00,
2013-10-08 15:22:00,61.3,52.6,29.93,ESE,106,0.0,0.0,73,0.00,,,0.00,Wunderground v.1.15,2013-10-08 19:22:00,
2013-10-08 15:28:00,61.3,52.9,29.93,SE,133,0.0,0.0,74,0.00,,,0.00,Wunderground v.1.15,2013-10-08 19:28:00,
2013-10-08 15:34:00,61.2,52.5,29.93,East,86,0.0,1.0,73,0.00,,,0.00,Wunderground v.1.15,2013-10-08 19:34:00,
2013-10-08 15:40:00,61.2,52.5,29.92,East,88,0.0,0.0,73,0.00,,,0.00,Wunderground v.1.15,2013-10-08 19:40:00,
2013-10-08 15:46:00,61.3,52.6,29.92,SE,129,0.0,1.0,73,0.00,,,0.00,Wunderground v.1.15,2013-10-08 19:46:00,
2013-10-08 15:52:00,61.3,52.6,29.93,NE,45,0.0,0.0,73,0.00,,,0.00,Wunderground v.1.15,2013-10-08 19:52:00,
2013-10-08 15:58:00,61.3,52.6,29.93,SE,128,0.0,0.0,73,0.00,,,0.00,Wunderground v.1.15,2013-10-08 19:58:00,
2013-10-08 16:04:00,61.3,52.6,29.92,NE,44,0.0,1.0,73,0.00,,,0.00,Wunderground v.1.15,2013-10-08 20:04:00,
2013-10-08 16:10:00,61.3,53.3,29.92,NE,44,0.0,0.0,75,0.00,,,0.00,Wunderground v.1.15,2013-10-08 20:10:00,
2013-10-08 16:16:00,61.2,53.6,29.93,South,173,0.0,0.0,76,0.00,,,0.00,Wunderground v.1.15,2013-10-08 20:16:00,
2013-10-08 16:22:00,61.0,52.7,29.93,NNE,19,0.0,0.0,74,0.00,,,0.00,Wunderground v.1.15,2013-10-08 20:22:00,
2013-10-08 16:28:00,61.0,53.0,29.93,NNE,20,0.0,0.0,75,0.00,,,0.00,Wunderground v.1.15,2013-10-08 20:28:00,
2013-10-08 16:34:00,61.0,53.4,29.93,ENE,58,0.0,0.0,76,0.00,,,0.00,Wunderground v.1.15,2013-10-08 20:34:00,
2013-10-08 16:40:00,60.9,52.9,29.93,ENE,58,0.0,0.0,75,0.00,,,0.00,Wunderground v.1.15,2013-10-08 20:40:00,
2013-10-08 16:46:00,60.8,52.8,29.94,ENE,58,0.0,0.0,75,0.00,,,0.00,Wunderground v.1.15,2013-10-08 20:46:00,
2013-10-08 16:52:00,60.8,52.8,29.94,East,85,0.0,0.0,75,0.00,,,0.00,Wunderground v.1.15,2013-10-08 20:52:00,
2013-10-08 16:58:00,60.7,52.4,29.93,ENE,60,0.0,1.0,74,0.00,,,0.00,Wunderground v.1.15,2013-10-08 20:58:00,
2013-10-08 17:04:00,60.6,52.3,29.94,NE,56,0.0,0.0,74,0.00,,,0.00,Wunderground v.1.15,2013-10-08 21:04:00,
2013-10-08 17:10:00,60.5,52.2,29.93,NE,56,0.0,0.0,74,0.00,,,0.00,Wunderground v.1.15,2013-10-08 21:10:00,
2013-10-08 17:16:00,60.5,52.5,29.93,NE,56,0.0,0.0,75,0.00,,,0.00,Wunderground v.1.15,2013-10-08 21:16:00,
2013-10-08 17:22:00,60.3,52.3,29.93,ENE,57,0.0,0.0,75,0.00,,,0.00,Wunderground v.1.15,2013-10-08 21:22:00,
2013-10-08 17:28:00,60.3,53.1,29.94,ENE,57,0.0,0.0,77,0.00,,,0.00,Wunderground v.1.15,2013-10-08 21:28:00,
2013-10-08 17:34:00,60.1,52.9,29.94,ENE,57,0.0,0.0,77,0.00,,,0.00,Wunderground v.1.15,2013-10-08 21:34:00,
2013-10-08 17:40:00,60.0,52.8,29.94,SW,226,0.0,0.0,77,0.00,,,0.00,Wunderground v.1.15,2013-10-08 21:40:00,
2013-10-08 17:46:00,59.9,53.0,29.94,SW,226,0.0,1.0,78,0.00,,,0.00,Wunderground v.1.15,2013-10-08 21:46:00,
2013-10-08 17:52:00,59.8,53.3,29.94,SW,226,0.0,0.0,79,0.00,,,0.00,Wunderground v.1.15,2013-10-08 21:52:00,
2013-10-08 17:58:00,59.7,53.2,29.95,SW,226,0.0,0.0,79,0.00,,,0.00,Wunderground v.1.15,2013-10-08 21:58:00,
2013-10-08 18:04:00,59.7,53.5,29.94,SW,226,0.0,0.0,80,0.00,,,0.00,Wunderground v.1.15,2013-10-08 22:04:00,
2013-10-08 18:10:00,59.5,53.3,29.94,SSW,201,0.0,1.0,80,0.00,,,0.00,Wunderground v.1.15,2013-10-08 22:10:00,
2013-10-08 18:16:00,59.5,53.3,29.94,ENE,57,0.0,1.0,80,0.00,,,0.00,Wunderground v.1.15,2013-10-08 22:16:00,
2013-10-08 18:22:00,59.3,53.1,29.94,ENE,57,0.0,0.0,80,0.00,,,0.00,Wunderground v.1.15,2013-10-08 22:22:00,
2013-10-08 18:28:00,59.3,53.1,29.95,NE,56,0.0,0.0,80,0.00,,,0.00,Wunderground v.1.15,2013-10-08 22:28:00,
2013-10-08 18:34:00,59.2,53.4,29.95,NE,56,0.0,0.0,81,0.00,,,0.00,Wunderground v.1.15,2013-10-08 22:34:00,
2013-10-08 18:40:00,59.2,53.4,29.95,NE,56,0.0,0.0,81,0.00,,,0.00,Wunderground v.1.15,2013-10-08 22:40:00,
2013-10-08 18:46:00,59.1,53.3,29.95,NE,56,0.0,0.0,81,0.00,,,0.00,Wunderground v.1.15,2013-10-08 22:46:00,
2013-10-08 18:52:00,59.1,52.9,29.95,ENE,57,0.0,0.0,80,0.00,,,0.00,Wunderground v.1.15,2013-10-08 22:52:00,
2013-10-08 18:58:00,59.1,52.9,29.95,ENE,57,0.0,0.0,80,0.00,,,0.00,Wunderground v.1.15,2013-10-08 22:58:00,
2013-10-08 19:04:00,59.0,52.8,29.95,SSW,194,0.0,0.0,80,0.00,,,0.00,Wunderground v.1.15,2013-10-08 23:04:00,
2013-10-08 19:10:00,59.0,52.5,29.95,South,176,0.0,0.0,79,0.00,,,0.00,Wunderground v.1.15,2013-10-08 23:10:00,
2013-10-08 19:16:00,58.9,52.1,29.95,ENE,60,0.0,0.0,78,0.00,,,0.00,Wunderground v.1.15,2013-10-08 23:16:00,
2013-10-08 19:22:00,58.9,52.1,29.96,South,177,0.0,0.0,78,0.00,,,0.00,Wunderground v.1.15,2013-10-08 23:22:00,
2013-10-08 19:28:00,58.9,52.1,29.96,East,95,0.0,2.0,78,0.00,,,0.00,Wunderground v.1.15,2013-10-08 23:28:00,
2013-10-08 19:34:00,58.9,52.1,29.96,ENE,72,0.0,1.0,78,0.00,,,0.00,Wunderground v.1.15,2013-10-08 23:34:00,
2013-10-08 19:40:00,58.9,52.1,29.96,ENE,72,0.0,0.0,78,0.00,,,0.00,Wunderground v.1.15,2013-10-08 23:40:00,
2013-10-08 19:46:00,58.8,51.6,29.96,ENE,72,0.0,0.0,77,0.00,,,0.00,Wunderground v.1.15,2013-10-08 23:46:00,
2013-10-08 19:52:00,58.8,52.0,29.96,ENE,72,0.0,0.0,78,0.00,,,0.00,Wunderground v.1.15,2013-10-08 23:52:00,
2013-10-08 19:58:00,58.7,51.5,29.96,ENE,72,0.0,1.0,77,0.00,,,0.00,Wunderground v.1.15,2013-10-08 23:58:00,
2013-10-08 20:04:00,58.7,51.5,29.97,NE,49,0.0,0.0,77,0.00,,,0.00,Wunderground v.1.15,2013-10-09 00:04:00,
2013-10-08 20:10:00,58.6,51.4,29.97,NE,50,0.0,0.0,77,0.00,,,0.00,Wunderground v.1.15,2013-10-09 00:10:00,
2013-10-08 20:16:00,58.6,51.8,29.97,South,181,0.0,0.0,78,0.00,,,0.00,Wunderground v.1.15,2013-10-09 00:16:00,
2013-10-08 20:22:00,58.6,51.8,29.96,NNW,338,0.0,0.0,78,0.00,,,0.00,Wunderground v.1.15,2013-10-09 00:22:00,
2013-10-08 20:28:00,58.6,51.8,29.96,NNW,338,0.0,0.0,78,0.00,,,0.00,Wunderground v.1.15,2013-10-09 00:28:00,
2013-10-08 20:34:00,58.5,51.7,29.96,SW,232,0.0,0.0,78,0.00,,,0.00,Wunderground v.1.15,2013-10-09 00:34:00,
2013-10-08 20:40:00,58.5,51.7,29.96,SW,232,0.0,0.0,78,0.00,,,0.00,Wunderground v.1.15,2013-10-09 00:40:00,
2013-10-08 20:46:00,58.4,51.6,29.96,SW,229,0.0,0.0,78,0.00,,,0.00,Wunderground v.1.15,2013-10-09 00:46:00,
2013-10-08 20:52:00,58.4,51.6,29.97,SSW,208,0.0,0.0,78,0.00,,,0.00,Wunderground v.1.15,2013-10-09 00:52:00,
2013-10-08 20:58:00,58.3,51.5,29.97,SSW,194,0.0,1.0,78,0.00,,,0.00,Wunderground v.1.15,2013-10-09 00:58:00,
2013-10-08 21:04:00,58.3,51.5,29.97,SSW,194,0.0,0.0,78,0.00,,,0.00,Wunderground v.1.15,2013-10-09 01:04:00,
2013-10-08 21:10:00,58.2,51.7,29.97,South,169,0.0,0.0,79,0.00,,,0.00,Wunderground v.1.15,2013-10-09 01:10:00,
2013-10-08 21:16:00,58.2,51.7,29.98,SSW,195,0.0,0.0,79,0.00,,,0.00,Wunderground v.1.15,2013-10-09 01:16:00,
2013-10-08 21:22:00,58.1,52.0,29.98,South,176,0.0,0.0,80,0.00,,,0.00,Wunderground v.1.15,2013-10-09 01:22:00,
2013-10-08 21:28:00,58.0,51.9,29.98,South,174,0.0,0.0,80,0.00,,,0.00,Wunderground v.1.15,2013-10-09 01:28:00,
2013-10-08 22:00:00,57.6,52.1,29.98,NE,48,0.0,0.0,82,0.00,,,0.00,Wunderground v.1.15,2013-10-09 02:00:00,
2013-10-08 22:06:00,57.4,52.3,29.98,NE,50,0.0,0.0,83,0.00,,,0.00,Wunderground v.1.15,2013-10-09 02:06:00,
2013-10-08 22:12:00,57.2,52.4,29.98,NE,49,0.0,0.0,84,0.00,,,0.00,Wunderground v.1.15,2013-10-09 02:12:00,
2013-10-08 22:18:00,56.9,52.4,29.98,NE,49,0.0,0.0,85,0.00,,,0.00,Wunderground v.1.15,2013-10-09 02:18:00,
2013-10-08 22:24:00,56.7,52.6,29.98,NE,50,0.0,0.0,86,0.00,,,0.00,Wunderground v.1.15,2013-10-09 02:24:00,
2013-10-08 22:30:00,56.3,52.5,29.98,NE,50,0.0,0.0,87,0.00,,,0.00,Wunderground v.1.15,2013-10-09 02:30:00,
2013-10-08 22:36:00,56.0,52.2,29.98,SW,222,0.0,1.0,87,0.00,,,0.00,Wunderground v.1.15,2013-10-09 02:36:00,
2013-10-08 22:42:00,55.7,51.9,29.98,SW,223,0.0,0.0,87,0.00,,,0.00,Wunderground v.1.15,2013-10-09 02:42:00,
2013-10-08 22:48:00,55.5,51.7,29.99,SW,223,0.0,0.0,87,0.00,,,0.00,Wunderground v.1.15,2013-10-09 02:48:00,
2013-10-08 22:54:00,55.3,51.5,29.99,SSW,203,0.0,0.0,87,0.15,,,0.02,Wunderground v.1.15,2013-10-09 02:54:00,
2013-10-08 23:00:00,55.0,51.5,29.98,SSW,203,0.0,0.0,88,0.41,,,0.07,Wunderground v.1.15,2013-10-09 03:00:00,
2013-10-08 23:06:00,54.7,51.2,29.98,ESE,105,0.0,0.0,88,0.09,,,0.07,Wunderground v.1.15,2013-10-09 03:06:00,
2013-10-08 23:12:00,54.4,50.9,29.98,ESE,113,0.0,0.0,88,0.30,,,0.10,Wunderground v.1.15,2013-10-09 03:12:00,
2013-10-08 23:18:00,54.3,50.8,29.98,ESE,113,0.0,0.0,88,0.08,,,0.11,Wunderground v.1.15,2013-10-09 03:18:00,
2013-10-08 23:24:00,54.1,50.6,29.98,ESE,115,0.0,0.0,88,0.64,,,0.19,Wunderground v.1.15,2013-10-09 03:24:00,
2013-10-08 23:30:00,53.8,50.3,29.97,WSW,245,0.0,0.0,88,0.16,,,0.21,Wunderground v.1.15,2013-10-09 03:30:00,
2013-10-08 23:36:00,53.7,50.2,29.97,WSW,243,0.0,0.0,88,0.07,,,0.21,Wunderground v.1.15,2013-10-09 03:36:00,
2013-10-08 23:42:00,53.7,49.9,29.96,SW,214,0.0,0.0,87,0.04,,,0.21,Wunderground v.1.15,2013-10-09 03:42:00,
2013-10-08 23:48:00,53.6,49.8,29.96,SW,214,0.0,0.0,87,0.00,,,0.21,Wunderground v.1.15,2013-10-09 03:48:00,
2013-10-08 23:54:00,53.6,49.8,29.96,SW,214,0.0,0.0,87,0.00,,,0.21,Wunderground v.1.15,2013-10-09 03:54:00,